< < Back
Terminal Aerodrome Forecast


Current Version              Previous Versions:   1  2  3  4  5  6  7  8  9  

Terminal Aerodrome Forecast

136
FTUS44 KMOB 291154
TAFMOB
TAF
KMOB 291154Z 2912/3012 00000KT P6SM SCT050 SCT250
     FM291800 23006KT P6SM VCTS SCT030CB
      TEMPO 2918/2921 4SM -TSRA BKN050CB
     FM300100 VRB02KT P6SM SCT250=



Latest METAR

985
SAUS80 KWBC 292100
MTRMOB
METAR KMOB 292056Z 23003KT 10SM TS SCT035CB SCT250 32/23 A3001 RMK AO2
TSB50 SLP159 OCNL LTGICCG S-SW TS S-SW MOV NE TCU SE 60027
T03170233 58012


USA.gov is the U.S. government's official web portal to all federal, state and local government web resources and services.